createdAt,value
2023-01-11T00:00:52.244Z,0.00
2023-01-11T00:01:52.257Z,0.00
2023-01-11T00:02:52.224Z,0.00
2023-01-11T00:03:52.170Z,0.00
2023-01-11T00:04:52.231Z,0.00
2023-01-11T00:05:52.225Z,0.00
2023-01-11T00:06:52.783Z,0.00
2023-01-11T00:07:52.168Z,0.00
2023-01-11T00:08:52.167Z,0.00
2023-01-11T00:09:52.125Z,0.00
2023-01-11T00:10:52.145Z,0.00
2023-01-11T00:11:52.893Z,0.00
2023-01-11T00:12:52.131Z,0.00
2023-01-11T00:13:52.123Z,0.00
2023-01-11T00:14:52.163Z,0.00
2023-01-11T00:15:52.203Z,0.00
2023-01-11T00:16:52.110Z,0.00
2023-01-11T00:17:52.057Z,0.00
2023-01-11T00:18:52.126Z,0.00
2023-01-11T00:19:52.080Z,0.00
2023-01-11T00:20:52.082Z,0.00
2023-01-11T00:21:52.023Z,0.00
2023-01-11T00:22:52.206Z,0.00
2023-01-11T00:23:51.987Z,0.00
2023-01-11T00:24:52.009Z,0.00
2023-01-11T00:25:51.968Z,0.00
2023-01-11T00:26:52.039Z,0.00
2023-01-11T00:27:52.900Z,0.00
2023-01-11T00:28:51.975Z,0.00
2023-01-11T00:29:51.970Z,0.00
2023-01-11T00:30:51.991Z,0.00
2023-01-11T00:31:51.914Z,0.00
2023-01-11T00:32:51.890Z,0.00
2023-01-11T00:33:51.963Z,0.00
2023-01-11T00:34:51.925Z,0.00
2023-01-11T00:35:51.870Z,0.00
2023-01-11T00:36:51.930Z,0.00
2023-01-11T00:37:51.918Z,0.00
2023-01-11T00:38:51.940Z,0.00
2023-01-11T00:39:51.832Z,0.00
2023-01-11T00:40:51.853Z,0.00
2023-01-11T00:41:51.817Z,0.00
2023-01-11T00:42:51.946Z,0.00
2023-01-11T00:43:52.761Z,0.00
2023-01-11T00:44:51.771Z,0.00
2023-01-11T00:45:51.846Z,0.00
2023-01-11T00:46:51.797Z,0.00
2023-01-11T00:47:51.806Z,0.00
2023-01-11T00:48:51.845Z,0.00
2023-01-11T00:49:51.753Z,0.00
2023-01-11T00:50:51.753Z,0.00
2023-01-11T00:51:51.758Z,0.00
2023-01-11T00:52:51.789Z,0.00
2023-01-11T00:53:51.718Z,0.00
2023-01-11T00:54:51.741Z,0.00
2023-01-11T00:55:51.727Z,0.00
2023-01-11T00:56:51.700Z,0.00
2023-01-11T00:57:51.695Z,0.00
2023-01-11T00:58:51.697Z,0.00
2023-01-11T00:59:52.226Z,0.00
2023-01-11T01:00:51.657Z,0.00
2023-01-11T01:01:51.672Z,0.00
2023-01-11T01:02:51.649Z,0.00
2023-01-11T01:03:51.599Z,0.00
2023-01-11T01:04:51.599Z,0.00
2023-01-11T01:05:51.586Z,0.00
2023-01-11T01:06:51.630Z,0.00
2023-01-11T01:07:51.632Z,0.00
2023-01-11T01:08:51.599Z,0.00
2023-01-11T01:09:51.577Z,0.00
2023-01-11T01:10:51.558Z,0.00
2023-01-11T01:11:51.623Z,0.00
2023-01-11T01:12:51.544Z,0.00
2023-01-11T01:13:51.565Z,0.00
2023-01-11T01:14:51.579Z,0.00
2023-01-11T01:15:51.594Z,0.00
2023-01-11T01:16:51.478Z,0.00
2023-01-11T01:17:51.531Z,0.00
2023-01-11T01:18:51.564Z,0.00
2023-01-11T01:19:51.463Z,0.00
2023-01-11T01:20:51.635Z,0.00
2023-01-11T01:21:51.488Z,0.00
2023-01-11T01:22:51.478Z,0.00
2023-01-11T01:23:51.429Z,0.00
2023-01-11T01:24:51.374Z,0.00
2023-01-11T01:25:51.466Z,0.00
2023-01-11T01:26:51.390Z,0.00
2023-01-11T01:27:51.397Z,0.00
2023-01-11T01:28:51.417Z,0.00
2023-01-11T01:29:51.318Z,0.00
2023-01-11T01:30:51.406Z,0.00
2023-01-11T01:31:51.345Z,0.00
2023-01-11T01:32:51.914Z,0.00
2023-01-11T01:33:51.333Z,0.00
2023-01-11T01:34:51.331Z,0.00
2023-01-11T01:35:51.286Z,0.00
2023-01-11T01:36:51.336Z,0.00
2023-01-11T01:37:51.253Z,0.00
2023-01-11T01:38:51.309Z,0.00
2023-01-11T01:39:51.339Z,0.00
2023-01-11T01:40:51.232Z,0.00
2023-01-11T01:41:51.265Z,0.00
2023-01-11T01:42:51.266Z,0.00
2023-01-11T01:43:51.282Z,0.00
2023-01-11T01:44:51.287Z,0.00
2023-01-11T01:45:51.228Z,0.00
2023-01-11T01:46:51.212Z,0.00
2023-01-11T01:47:51.251Z,0.00
2023-01-11T01:48:51.951Z,0.00
2023-01-11T01:49:51.148Z,0.00
2023-01-11T01:50:51.150Z,0.00
2023-01-11T01:51:51.145Z,0.00
2023-01-11T01:52:51.204Z,0.00
2023-01-11T01:53:51.117Z,0.00
2023-01-11T01:54:51.159Z,0.00
2023-01-11T01:55:51.096Z,0.00
2023-01-11T01:56:51.143Z,0.00
2023-01-11T01:57:51.177Z,0.00
2023-01-11T01:58:51.072Z,0.00
2023-01-11T01:59:51.110Z,0.00
2023-01-11T02:00:51.067Z,0.00
2023-01-11T02:01:51.131Z,0.00
2023-01-11T02:02:51.238Z,0.00
2023-01-11T02:03:51.042Z,0.00
2023-01-11T02:04:51.072Z,0.00
2023-01-11T02:05:51.037Z,0.00
2023-01-11T02:06:51.025Z,0.00
2023-01-11T02:07:51.157Z,0.00
2023-01-11T02:08:50.987Z,0.00
2023-01-11T02:09:51.886Z,0.00
2023-01-11T02:10:50.964Z,0.00
2023-01-11T02:11:51.041Z,0.00
2023-01-11T02:12:50.975Z,0.00
2023-01-11T02:13:50.996Z,0.00
2023-01-11T02:14:50.989Z,0.00
2023-01-11T02:15:50.948Z,0.00
2023-01-11T02:16:50.947Z,0.00
2023-01-11T02:17:50.968Z,0.00
2023-01-11T02:18:51.818Z,0.00
2023-01-11T02:19:50.866Z,0.00
2023-01-11T02:20:50.925Z,0.00
2023-01-11T02:21:50.881Z,0.00
2023-01-11T02:22:50.952Z,0.00
2023-01-11T02:23:50.808Z,0.00
2023-01-11T02:24:50.833Z,0.00
2023-01-11T02:25:50.837Z,0.00
2023-01-11T02:26:50.848Z,0.00
2023-01-11T02:27:51.710Z,0.00
2023-01-11T02:28:50.769Z,0.00
2023-01-11T02:29:50.791Z,0.00
2023-01-11T02:30:50.875Z,0.00
2023-01-11T02:31:50.720Z,0.00
2023-01-11T02:32:50.753Z,0.00
2023-01-11T02:33:50.738Z,0.00
2023-01-11T02:34:50.779Z,0.00
2023-01-11T02:35:50.731Z,0.00
2023-01-11T02:36:51.207Z,0.00
2023-01-11T02:37:50.753Z,0.00
2023-01-11T02:38:50.712Z,0.00
2023-01-11T02:39:50.819Z,0.00
2023-01-11T02:40:50.709Z,0.00
2023-01-11T02:41:50.680Z,0.00
2023-01-11T02:42:50.696Z,0.00
2023-01-11T02:43:50.716Z,0.00
2023-01-11T02:44:50.592Z,0.00
2023-01-11T02:45:50.594Z,0.00
2023-01-11T02:46:50.727Z,0.00
2023-01-11T02:47:50.722Z,0.00
2023-01-11T02:48:50.623Z,0.00
2023-01-11T02:49:50.570Z,0.00
2023-01-11T02:50:51.276Z,0.00
2023-01-11T02:51:50.598Z,0.00
2023-01-11T02:52:50.650Z,0.00
2023-01-11T02:53:50.543Z,0.00
2023-01-11T02:54:50.547Z,0.00
2023-01-11T02:55:51.381Z,0.00
2023-01-11T02:56:50.547Z,0.00
2023-01-11T02:57:50.492Z,0.00
2023-01-11T02:58:50.485Z,0.00
2023-01-11T02:59:50.523Z,0.00
2023-01-11T03:00:50.451Z,0.00
2023-01-11T03:01:50.533Z,0.00
2023-01-11T03:02:51.920Z,0.00
2023-01-11T03:03:50.419Z,0.00
2023-01-11T03:04:50.574Z,0.00
2023-01-11T03:05:50.424Z,0.00
2023-01-11T03:06:50.468Z,0.00
2023-01-11T03:07:50.410Z,0.00
2023-01-11T03:08:50.406Z,0.00
2023-01-11T03:09:50.443Z,0.00
2023-01-11T03:10:50.560Z,0.00
2023-01-11T03:11:51.197Z,0.00
2023-01-11T03:12:50.340Z,0.00
2023-01-11T03:13:50.377Z,0.00
2023-01-11T03:14:50.337Z,0.00
2023-01-11T03:15:50.388Z,0.00
2023-01-11T03:16:50.942Z,0.00
2023-01-11T03:17:50.320Z,0.00
2023-01-11T03:18:50.311Z,0.00
2023-01-11T03:19:50.261Z,0.00
2023-01-11T03:20:50.329Z,0.00
2023-01-11T03:21:50.346Z,0.00
2023-01-11T03:22:50.329Z,0.00
2023-01-11T03:23:50.253Z,0.00
2023-01-11T03:24:50.324Z,0.00
2023-01-11T03:25:50.248Z,0.00
2023-01-11T03:26:50.270Z,0.00
2023-01-11T03:27:50.291Z,0.00
2023-01-11T03:28:50.206Z,0.00
2023-01-11T03:29:50.251Z,0.00
2023-01-11T03:30:50.146Z,0.00
2023-01-11T03:31:50.181Z,0.00
2023-01-11T03:32:50.426Z,0.00
2023-01-11T03:33:50.328Z,0.00
2023-01-11T03:34:50.141Z,0.00
2023-01-11T03:35:50.115Z,0.00
2023-01-11T03:36:50.129Z,0.00
2023-01-11T03:37:50.173Z,0.00
2023-01-11T03:38:50.130Z,0.00
2023-01-11T03:39:50.884Z,0.00
2023-01-11T03:40:50.173Z,0.00
2023-01-11T03:41:50.248Z,0.00
2023-01-11T03:42:50.117Z,0.00
2023-01-11T03:43:50.103Z,0.00
2023-01-11T03:44:50.113Z,0.00
2023-01-11T03:45:49.994Z,0.00
2023-01-11T03:46:50.113Z,0.00
2023-01-11T03:47:50.050Z,0.00
2023-01-11T03:48:50.007Z,0.00
2023-01-11T03:49:50.047Z,0.00
2023-01-11T03:50:50.037Z,0.00
2023-01-11T03:51:49.997Z,0.00
2023-01-11T03:52:49.999Z,0.00
2023-01-11T03:53:50.058Z,0.00
2023-01-11T03:54:50.026Z,0.00
2023-01-11T03:55:50.012Z,0.00
2023-01-11T03:56:49.961Z,0.00
2023-01-11T03:57:49.929Z,0.00
2023-01-11T03:58:49.927Z,0.00
2023-01-11T03:59:49.914Z,0.00
2023-01-11T04:00:49.934Z,0.00
2023-01-11T04:01:49.870Z,0.00
2023-01-11T04:02:49.890Z,0.00
2023-01-11T04:03:49.956Z,0.00
2023-01-11T04:04:49.875Z,0.00
2023-01-11T04:05:49.868Z,0.00
2023-01-11T04:06:49.978Z,0.00
2023-01-11T04:07:49.855Z,0.00
2023-01-11T04:08:49.907Z,0.00
2023-01-11T04:09:49.781Z,0.00
2023-01-11T04:10:49.789Z,0.00
2023-01-11T04:11:49.782Z,0.00
2023-01-11T04:12:49.857Z,0.00
2023-01-11T04:13:49.798Z,0.00
2023-01-11T04:14:49.723Z,0.00
2023-01-11T04:15:49.793Z,0.00
2023-01-11T04:16:49.768Z,0.00
2023-01-11T04:17:49.812Z,0.00
2023-01-11T04:18:49.764Z,0.00
2023-01-11T04:19:49.694Z,0.00
2023-01-11T04:20:49.702Z,0.00
2023-01-11T04:21:49.700Z,0.00
2023-01-11T04:22:49.682Z,0.00
2023-01-11T04:23:49.694Z,0.00
2023-01-11T04:24:49.701Z,0.00
2023-01-11T04:25:49.647Z,0.00
2023-01-11T04:26:49.587Z,0.00
2023-01-11T04:27:49.643Z,0.00
2023-01-11T04:28:49.690Z,0.00
2023-01-11T04:29:49.672Z,0.00
2023-01-11T04:30:49.602Z,0.00
2023-01-11T04:31:49.791Z,0.00
2023-01-11T04:32:49.684Z,0.00
2023-01-11T04:33:49.630Z,0.00
2023-01-11T04:34:49.546Z,0.00
2023-01-11T04:35:49.614Z,0.00
2023-01-11T04:36:49.488Z,0.00
2023-01-11T04:37:49.793Z,0.00
2023-01-11T04:38:49.503Z,0.00
2023-01-11T04:39:49.551Z,0.00
2023-01-11T04:40:49.577Z,0.00
2023-01-11T04:41:49.527Z,0.00
2023-01-11T04:42:49.531Z,0.00
2023-01-11T04:43:49.517Z,0.00
2023-01-11T04:44:49.548Z,0.00
2023-01-11T04:45:49.513Z,0.00
2023-01-11T04:46:50.320Z,0.00
2023-01-11T04:47:49.409Z,0.00
2023-01-11T04:48:49.474Z,0.00
2023-01-11T04:49:49.509Z,0.00
2023-01-11T04:50:49.438Z,0.00
2023-01-11T04:51:49.403Z,0.00
2023-01-11T04:52:49.395Z,0.00
2023-01-11T04:53:49.404Z,0.00
2023-01-11T04:54:49.343Z,0.00
2023-01-11T04:55:49.617Z,0.00
2023-01-11T04:56:49.343Z,0.00
2023-01-11T04:57:49.369Z,0.00
2023-01-11T04:58:49.337Z,0.00
2023-01-11T04:59:49.332Z,0.00
2023-01-11T05:00:49.394Z,0.00
2023-01-11T05:01:49.330Z,0.00
2023-01-11T05:02:49.365Z,0.00
2023-01-11T05:03:49.311Z,0.00
2023-01-11T05:04:49.281Z,0.00
2023-01-11T05:05:49.221Z,0.00
2023-01-11T05:06:49.322Z,0.00
2023-01-11T05:07:49.876Z,0.00
2023-01-11T05:08:49.223Z,0.00
2023-01-11T05:09:49.980Z,0.00
2023-01-11T05:10:49.191Z,0.00
2023-01-11T05:11:49.287Z,0.00
2023-01-11T05:12:49.160Z,0.00
2023-01-11T05:13:49.249Z,0.00
2023-01-11T05:14:49.182Z,0.00
2023-01-11T05:15:49.223Z,0.00
2023-01-11T05:16:49.247Z,0.00
2023-01-11T05:17:49.177Z,0.00
2023-01-11T05:18:49.206Z,0.00
2023-01-11T05:19:49.140Z,0.00
2023-01-11T05:20:49.111Z,0.00
2023-01-11T05:21:49.090Z,0.00
2023-01-11T05:22:49.148Z,0.00
2023-01-11T05:23:49.107Z,0.00
2023-01-11T05:24:49.055Z,0.00
2023-01-11T05:25:49.095Z,0.00
2023-01-11T05:26:49.075Z,0.00
2023-01-11T05:27:49.041Z,0.00
2023-01-11T05:28:49.052Z,0.00
2023-01-11T05:29:49.023Z,0.00
2023-01-11T05:30:49.834Z,0.00
2023-01-11T05:31:49.061Z,0.00
2023-01-11T05:32:49.006Z,0.00
2023-01-11T05:33:49.002Z,0.00
2023-01-11T05:34:48.961Z,0.00
2023-01-11T05:35:48.952Z,0.00
2023-01-11T05:36:49.001Z,0.00
2023-01-11T05:37:48.954Z,0.00
2023-01-11T05:38:48.959Z,0.00
2023-01-11T05:39:49.106Z,0.00
2023-01-11T05:40:48.902Z,0.00
2023-01-11T05:41:49.025Z,0.00
2023-01-11T05:42:48.962Z,0.00
2023-01-11T05:43:48.884Z,0.00
2023-01-11T05:44:48.928Z,0.00
2023-01-11T05:45:48.865Z,0.00
2023-01-11T05:46:48.925Z,0.00
2023-01-11T05:47:48.882Z,0.00
2023-01-11T05:48:49.061Z,0.00
2023-01-11T05:49:48.851Z,0.00
2023-01-11T05:50:48.767Z,0.00
2023-01-11T05:51:48.841Z,0.00
2023-01-11T05:52:48.788Z,0.00
2023-01-11T05:53:48.802Z,0.00
2023-01-11T05:54:48.799Z,0.00
2023-01-11T05:55:48.902Z,0.00
2023-01-11T05:56:48.750Z,0.00
2023-01-11T05:57:48.777Z,0.00
2023-01-11T05:58:48.897Z,0.00
2023-01-11T05:59:48.756Z,0.00
2023-01-11T06:00:48.727Z,0.00
2023-01-11T06:01:48.772Z,0.00
2023-01-11T06:02:48.819Z,0.00
2023-01-11T06:03:48.728Z,0.00
2023-01-11T06:04:48.660Z,0.00
2023-01-11T06:05:48.670Z,0.00
2023-01-11T06:06:48.682Z,0.00
2023-01-11T06:07:48.699Z,0.00
2023-01-11T06:08:48.636Z,0.00
2023-01-11T06:09:48.629Z,0.00
2023-01-11T06:10:48.627Z,0.00
2023-01-11T06:11:48.599Z,0.00
2023-01-11T06:12:48.584Z,0.00
2023-01-11T06:13:48.631Z,0.00
2023-01-11T06:14:48.653Z,0.00
2023-01-11T06:15:48.537Z,0.00
2023-01-11T06:16:48.633Z,0.00
2023-01-11T06:17:48.546Z,0.00
2023-01-11T06:18:48.528Z,0.00
2023-01-11T06:32:20.488Z,0.00
2023-01-11T06:33:21.088Z,0.00
2023-01-11T06:34:20.460Z,0.00
2023-01-11T06:35:20.510Z,0.00
2023-01-11T06:36:21.659Z,0.00
2023-01-11T06:37:21.575Z,0.00
2023-01-11T06:38:21.653Z,0.00
2023-01-11T06:39:21.572Z,0.00
2023-01-11T06:40:21.539Z,0.00
2023-01-11T06:41:21.592Z,0.00
2023-01-11T06:42:21.711Z,0.00
2023-01-11T06:43:21.546Z,0.00
2023-01-11T06:44:21.607Z,0.00
2023-01-11T06:45:21.492Z,0.00
2023-01-11T06:46:21.530Z,0.00
2023-01-11T06:47:21.535Z,0.00
2023-01-11T06:48:21.440Z,0.00
2023-01-11T06:49:21.524Z,0.00
2023-01-11T06:50:21.457Z,0.00
2023-01-11T06:51:21.441Z,0.00
2023-01-11T06:52:21.462Z,0.00
2023-01-11T06:53:21.425Z,0.00
2023-01-11T06:54:22.121Z,0.00
2023-01-11T06:55:21.425Z,0.00
2023-01-11T06:56:21.513Z,0.00
2023-01-11T06:57:21.390Z,0.00
2023-01-11T06:58:21.402Z,0.00
2023-01-11T06:59:21.405Z,0.00
2023-01-11T07:00:21.361Z,0.00
2023-01-11T07:01:21.395Z,0.00
2023-01-11T07:02:21.326Z,0.00
2023-01-11T07:03:21.315Z,0.00
2023-01-11T07:04:21.422Z,4.00
2023-01-11T07:05:21.443Z,4.00
2023-01-11T07:06:21.374Z,4.00
2023-01-11T07:07:21.272Z,0.00
2023-01-11T07:08:21.333Z,4.00
2023-01-11T07:09:21.247Z,4.00
2023-01-11T07:10:21.235Z,4.00
2023-01-11T07:11:21.238Z,4.00
2023-01-11T07:12:21.240Z,8.00
2023-01-11T07:13:21.189Z,4.00
2023-01-11T07:14:21.279Z,4.00
2023-01-11T07:15:21.245Z,4.00
2023-01-11T07:16:21.217Z,8.00
2023-01-11T07:17:21.212Z,8.00
2023-01-11T07:18:21.162Z,12.00
2023-01-11T07:19:21.148Z,8.00
2023-01-11T07:20:21.139Z,12.00
2023-01-11T07:21:21.104Z,8.00
2023-01-11T07:22:21.111Z,12.00
2023-01-11T07:23:21.078Z,12.00
2023-01-11T07:24:21.209Z,16.00
2023-01-11T07:25:21.108Z,16.00
2023-01-11T07:26:21.110Z,16.00
2023-01-11T07:27:21.078Z,16.00
2023-01-11T07:28:21.068Z,20.00
2023-01-11T07:29:21.054Z,20.00
2023-01-11T07:30:21.034Z,20.00
2023-01-11T07:31:21.041Z,24.00
2023-01-11T07:32:21.022Z,24.00
2023-01-11T07:33:21.015Z,28.00
2023-01-11T07:34:20.988Z,28.00
2023-01-11T07:35:21.024Z,36.00
2023-01-11T07:36:20.936Z,36.00
2023-01-11T07:37:29.349Z,40.00
2023-01-11T07:38:21.954Z,40.00
2023-01-11T07:39:24.870Z,44.00
2023-01-11T07:40:21.965Z,52.00
2023-01-11T07:41:20.923Z,52.00
2023-01-11T07:42:20.988Z,52.00
2023-01-11T07:43:20.911Z,52.00
2023-01-11T07:44:20.948Z,56.00
2023-01-11T07:45:20.986Z,60.00
2023-01-11T07:46:20.985Z,56.00
2023-01-11T07:47:20.867Z,56.00
2023-01-11T07:48:21.010Z,60.00
2023-01-11T07:49:20.915Z,76.00
2023-01-11T07:50:20.816Z,64.00
2023-01-11T07:51:21.100Z,64.00
2023-01-11T07:52:20.804Z,72.00
2023-01-11T07:53:20.809Z,80.00
2023-01-11T07:54:20.869Z,88.00
2023-01-11T07:55:20.798Z,96.00
2023-01-11T07:56:22.920Z,104.00
2023-01-11T07:57:20.830Z,88.00
2023-01-11T07:58:20.896Z,92.00
2023-01-11T07:59:20.759Z,116.00
2023-01-11T08:00:20.722Z,112.00
2023-01-11T08:01:20.740Z,108.00
2023-01-11T08:02:20.731Z,124.00
2023-01-11T08:03:20.962Z,120.00
2023-01-11T08:04:20.726Z,120.00
2023-01-11T08:05:20.695Z,128.00
2023-01-11T08:06:20.654Z,124.00
2023-01-11T08:07:20.680Z,132.00
2023-01-11T08:08:20.658Z,128.00
2023-01-11T08:09:20.711Z,148.00
2023-01-11T08:10:20.616Z,176.00
2023-01-11T08:11:20.624Z,168.00
2023-01-11T08:12:21.245Z,168.00
2023-01-11T08:13:20.598Z,200.00
2023-01-11T08:14:20.657Z,212.00
2023-01-11T08:15:23.481Z,216.00
2023-01-11T08:16:20.600Z,216.00
2023-01-11T08:17:20.578Z,220.00
2023-01-11T08:18:20.565Z,204.00
2023-01-11T08:19:20.591Z,224.00
2023-01-11T08:20:20.566Z,200.00
2023-01-11T08:21:20.696Z,196.00
2023-01-11T08:22:20.503Z,204.00
2023-01-11T08:23:20.551Z,204.00
2023-01-11T08:24:20.531Z,196.00
2023-01-11T08:25:20.474Z,208.00
2023-01-11T08:26:20.462Z,224.00
2023-01-11T08:27:20.462Z,252.00
2023-01-11T08:28:21.554Z,252.00
2023-01-11T08:29:20.442Z,244.00
2023-01-11T08:30:20.413Z,212.00
2023-01-11T08:31:20.453Z,196.00
2023-01-11T08:32:20.385Z,196.00
2023-01-11T08:33:20.473Z,188.00
2023-01-11T08:34:20.371Z,196.00
2023-01-11T08:35:20.382Z,192.00
2023-01-11T08:36:20.345Z,184.00
2023-01-11T08:37:20.356Z,196.00
2023-01-11T08:38:20.341Z,200.00
2023-01-11T08:39:20.367Z,192.00
2023-01-11T08:40:23.604Z,188.00
2023-01-11T08:41:20.338Z,200.00
2023-01-11T08:42:20.297Z,192.00
2023-01-11T08:43:20.306Z,208.00
2023-01-11T08:44:33.271Z,288.00
2023-01-11T08:45:21.283Z,268.00
2023-01-11T08:46:20.336Z,308.00
2023-01-11T08:47:20.252Z,268.00
2023-01-11T08:48:20.241Z,324.00
2023-01-11T08:49:21.181Z,348.00
2023-01-11T08:50:20.415Z,380.00
2023-01-11T08:51:20.270Z,292.00
2023-01-11T08:52:20.213Z,364.00
2023-01-11T08:53:20.248Z,420.00
2023-01-11T08:54:20.186Z,380.00
2023-01-11T08:55:20.234Z,420.00
2023-01-11T08:56:20.180Z,428.00
2023-01-11T08:57:20.157Z,508.00
2023-01-11T08:58:21.541Z,512.00
2023-01-11T08:59:21.120Z,472.00
2023-01-11T09:00:20.149Z,560.00
2023-01-11T09:01:20.181Z,580.00
2023-01-11T09:02:20.118Z,532.00
2023-01-11T09:03:20.198Z,548.00
2023-01-11T09:04:25.208Z,532.00
2023-01-11T09:05:22.108Z,572.00
2023-01-11T09:06:20.123Z,532.00
2023-01-11T09:07:20.081Z,516.00
2023-01-11T09:08:20.054Z,540.00
2023-01-11T09:09:20.069Z,556.00
2023-01-11T09:10:20.073Z,568.00
2023-01-11T09:11:20.054Z,500.00
2023-01-11T09:12:21.112Z,528.00
2023-01-11T09:13:20.014Z,480.00
2023-01-11T09:14:20.008Z,488.00
2023-01-11T09:15:19.998Z,480.00
2023-01-11T09:16:20.045Z,492.00
2023-01-11T09:17:19.964Z,508.00
2023-01-11T09:18:19.965Z,504.00
2023-01-11T09:19:20.637Z,504.00
2023-01-11T09:20:19.965Z,476.00
2023-01-11T09:21:19.875Z,488.00
2023-01-11T09:22:19.900Z,480.00
2023-01-11T09:23:19.910Z,480.00
2023-01-11T09:24:19.932Z,516.00
2023-01-11T09:25:19.910Z,500.00
2023-01-11T09:26:19.850Z,516.00
2023-01-11T09:27:19.864Z,512.00
2023-01-11T09:28:19.853Z,488.00
2023-01-11T09:29:19.905Z,464.00
2023-01-11T09:30:19.888Z,456.00
2023-01-11T09:31:19.868Z,448.00
2023-01-11T09:32:19.820Z,428.00
2023-01-11T09:33:19.866Z,440.00
2023-01-11T09:34:19.781Z,472.00
2023-01-11T09:35:19.781Z,448.00
2023-01-11T09:36:19.766Z,436.00
2023-01-11T09:37:19.725Z,428.00
2023-01-11T09:38:19.739Z,512.00
2023-01-11T09:39:19.729Z,576.00
2023-01-11T09:40:19.833Z,620.00
2023-01-11T09:41:19.712Z,584.00
2023-01-11T09:42:20.742Z,644.00
2023-01-11T09:43:19.702Z,668.00
2023-01-11T09:44:19.712Z,684.00
2023-01-11T09:45:19.686Z,724.00
2023-01-11T09:46:19.674Z,768.00
2023-01-11T09:47:19.658Z,776.00
2023-01-11T09:48:19.636Z,792.00
2023-01-11T09:49:19.660Z,808.00
2023-01-11T09:50:19.644Z,764.00
2023-01-11T09:51:19.673Z,724.00
2023-01-11T09:52:19.673Z,692.00
2023-01-11T09:53:19.579Z,676.00
2023-01-11T09:54:19.630Z,656.00
2023-01-11T09:55:19.569Z,608.00
2023-01-11T09:56:19.564Z,604.00
2023-01-11T09:57:19.599Z,564.00
2023-01-11T09:58:22.169Z,532.00
2023-01-11T09:59:19.535Z,520.00
2023-01-11T10:00:19.600Z,508.00
2023-01-11T10:01:19.619Z,516.00
2023-01-11T10:02:19.540Z,448.00
2023-01-11T10:03:19.495Z,412.00
2023-01-11T10:04:19.500Z,456.00
2023-01-11T10:05:19.587Z,460.00
2023-01-11T10:06:21.222Z,480.00
2023-01-11T10:07:19.500Z,432.00
2023-01-11T10:18:25.676Z,620.00
2023-01-11T10:18:28.979Z,608.00
2023-01-11T10:18:31.574Z,564.00
2023-01-11T10:18:32.543Z,588.00
2023-01-11T10:18:34.255Z,548.00
2023-01-11T10:19:40.366Z,668.00
2023-01-11T10:20:21.594Z,752.00
2023-01-11T10:21:19.355Z,712.00
2023-01-11T10:22:19.303Z,716.00
2023-01-11T10:23:19.359Z,736.00
2023-01-11T10:24:19.366Z,752.00
2023-01-11T10:32:44.049Z,892.00
2023-01-11T10:33:45.367Z,1020.00
2023-01-11T10:34:45.980Z,1052.00
2023-01-11T10:35:45.266Z,1084.00
2023-01-11T10:36:45.230Z,1224.00
2023-01-11T10:37:45.267Z,1236.00
2023-01-11T10:38:45.235Z,1076.00
2023-01-11T10:39:45.228Z,976.00
2023-01-11T10:40:45.174Z,976.00
2023-01-11T10:41:45.192Z,1020.00
2023-01-11T10:42:45.195Z,988.00
2023-01-11T10:43:45.145Z,944.00
2023-01-11T10:44:45.328Z,1004.00
2023-01-11T10:45:45.159Z,1016.00
2023-01-11T10:46:46.089Z,964.00
2023-01-11T10:47:45.113Z,948.00
2023-01-11T10:48:45.228Z,972.00
2023-01-11T10:49:45.157Z,988.00
2023-01-11T10:50:45.258Z,1020.00
2023-01-11T10:51:45.110Z,1016.00
2023-01-11T10:52:45.067Z,1044.00
2023-01-11T10:53:45.142Z,1044.00
2023-01-11T10:54:46.528Z,1132.00
2023-01-11T10:55:47.048Z,1180.00
2023-01-11T10:57:03.241Z,1200.00
2023-01-11T10:58:00.152Z,1204.00
2023-01-11T10:58:46.042Z,1216.00
2023-01-11T10:59:45.005Z,1240.00
2023-01-11T11:00:46.663Z,1248.00
2023-01-11T11:01:44.991Z,1244.00
2023-01-11T11:02:44.991Z,1208.00
2023-01-11T11:03:44.942Z,1124.00
2023-01-11T11:04:44.976Z,1032.00
2023-01-11T11:05:44.956Z,988.00
2023-01-11T11:06:44.927Z,936.00
2023-01-11T11:07:45.584Z,916.00
2023-01-11T11:08:44.886Z,880.00
2023-01-11T11:09:44.906Z,836.00
2023-01-11T11:10:44.910Z,796.00
2023-01-11T11:11:44.901Z,764.00
2023-01-11T11:12:44.858Z,744.00
2023-01-11T11:13:44.858Z,732.00
2023-01-11T11:14:44.861Z,716.00
2023-01-11T11:15:44.886Z,712.00
2023-01-11T11:16:44.882Z,708.00
2023-01-11T11:17:44.823Z,716.00
2023-01-11T11:18:44.831Z,720.00
2023-01-11T11:19:44.812Z,720.00
2023-01-11T11:20:44.815Z,712.00
2023-01-11T11:21:45.609Z,720.00
2023-01-11T11:22:44.737Z,728.00
2023-01-11T11:23:44.797Z,748.00
2023-01-11T11:24:44.746Z,772.00
2023-01-11T11:25:44.779Z,796.00
2023-01-11T11:26:44.776Z,816.00
2023-01-11T11:27:44.708Z,836.00
2023-01-11T11:28:44.851Z,840.00
2023-01-11T11:29:44.716Z,836.00
2023-01-11T11:30:46.668Z,840.00
2023-01-11T11:31:44.722Z,840.00
2023-01-11T11:32:44.776Z,840.00
2023-01-11T11:33:44.662Z,840.00
2023-01-11T11:34:44.665Z,860.00
2023-01-11T11:35:44.677Z,888.00
2023-01-11T11:36:44.640Z,920.00
2023-01-11T11:37:44.859Z,952.00
2023-01-11T11:38:44.627Z,984.00
2023-01-11T11:39:44.657Z,1032.00
2023-01-11T11:40:44.589Z,1108.00
2023-01-11T11:41:44.598Z,1184.00
2023-01-11T11:42:44.604Z,1216.00
2023-01-11T11:43:44.559Z,1192.00
2023-01-11T11:44:45.604Z,1140.00
2023-01-11T11:45:44.552Z,1060.00
2023-01-11T11:46:44.538Z,1016.00
2023-01-11T11:47:44.553Z,1004.00
2023-01-11T11:48:44.518Z,1004.00
2023-01-11T11:49:44.520Z,1008.00
2023-01-11T11:50:45.753Z,1016.00
2023-01-11T11:51:45.526Z,1012.00
2023-01-11T11:52:44.555Z,1012.00
2023-01-11T11:53:44.464Z,1036.00
2023-01-11T11:54:44.462Z,1064.00
2023-01-11T11:55:44.455Z,1092.00
2023-01-11T11:56:44.453Z,1124.00
2023-01-11T11:57:44.462Z,1136.00
2023-01-11T11:58:44.430Z,1116.00
2023-01-11T11:59:44.413Z,1096.00
2023-01-11T12:00:44.496Z,1096.00
2023-01-11T12:01:44.397Z,1092.00
2023-01-11T12:02:44.377Z,1048.00
2023-01-11T12:03:44.349Z,992.00
2023-01-11T12:04:44.407Z,948.00
2023-01-11T12:05:44.373Z,912.00
2023-01-11T12:06:44.325Z,888.00
2023-01-11T12:07:54.420Z,852.00
2023-01-11T12:08:46.341Z,812.00
2023-01-11T12:09:44.345Z,796.00
2023-01-11T12:20:09.553Z,904.00
2023-01-11T12:21:10.846Z,928.00
2023-01-11T12:22:10.829Z,928.00
2023-01-11T12:23:10.724Z,936.00
2023-01-11T12:24:10.702Z,940.00
2023-01-11T12:25:10.694Z,948.00
2023-01-11T12:26:10.625Z,952.00
2023-01-11T12:27:10.637Z,956.00
2023-01-11T12:28:11.201Z,952.00
2023-01-11T12:29:10.659Z,936.00
2023-01-11T12:30:10.583Z,932.00
2023-01-11T12:31:10.682Z,960.00
2023-01-11T12:32:11.542Z,1008.00
2023-01-11T12:33:11.334Z,1108.00
2023-01-11T12:34:10.572Z,1196.00
2023-01-11T12:35:10.565Z,1208.00
2023-01-11T12:36:10.537Z,1168.00
2023-01-11T12:37:10.539Z,1148.00
2023-01-11T12:38:10.528Z,1128.00
2023-01-11T12:39:10.561Z,1076.00
2023-01-11T12:40:10.555Z,1004.00
2023-01-11T12:41:10.504Z,924.00
2023-01-11T12:42:11.834Z,848.00
2023-01-11T12:43:10.472Z,840.00
2023-01-11T12:44:10.588Z,804.00
2023-01-11T12:45:10.459Z,768.00
2023-01-11T12:46:10.442Z,832.00
2023-01-11T12:47:10.537Z,832.00
2023-01-11T12:48:10.430Z,816.00
2023-01-11T12:57:30.350Z,1036.00
2023-01-11T12:58:31.825Z,1072.00
2023-01-11T12:59:31.605Z,1116.00
2023-01-11T13:00:32.011Z,1164.00
2023-01-11T13:01:31.579Z,1184.00
2023-01-11T13:02:31.617Z,1156.00
2023-01-11T13:03:31.592Z,1092.00
2023-01-11T13:04:31.874Z,1024.00
2023-01-11T13:05:31.536Z,992.00
2023-01-11T13:06:31.508Z,1048.00
2023-01-11T13:07:31.598Z,1184.00
2023-01-11T13:08:31.509Z,1344.00
2023-01-11T13:09:31.503Z,1460.00
2023-01-11T13:10:31.502Z,1500.00
2023-01-11T13:11:32.550Z,1516.00
2023-01-11T13:12:31.423Z,1516.00
2023-01-11T13:13:31.480Z,1504.00
2023-01-11T13:14:31.400Z,1484.00
2023-01-11T13:15:34.208Z,1440.00
2023-01-11T13:16:32.290Z,1400.00
2023-01-11T13:17:32.448Z,1380.00
2023-01-11T13:18:31.458Z,1332.00
2023-01-11T13:23:11.023Z,1308.00
2023-01-11T13:24:11.688Z,1400.00
2023-01-11T13:25:12.382Z,1532.00
2023-01-11T13:26:11.627Z,1684.00
2023-01-11T13:27:11.710Z,1780.00
2023-01-11T13:28:16.647Z,1776.00
2023-01-11T13:29:12.590Z,1780.00
2023-01-11T13:30:11.842Z,1808.00
2023-01-11T13:31:11.698Z,1844.00
2023-01-11T13:32:11.696Z,1868.00
2023-01-11T13:33:11.581Z,1880.00
2023-01-11T13:34:11.543Z,1856.00
2023-01-11T13:35:11.567Z,1824.00
2023-01-11T13:36:22.306Z,1780.00
2023-01-11T13:37:13.554Z,1740.00
2023-01-11T13:38:11.497Z,1696.00
2023-01-11T13:39:11.489Z,1652.00
2023-01-11T13:40:11.572Z,1612.00
2023-01-11T13:41:11.500Z,1580.00